M I D A S
Marine Information and Data Acquisition System
Tripno 1736 of the Zeeleeuw from 2009-07-22 06:57:50 to 2009-07-22 14:39:28
Back to CruiseResearch ActivitiesStationsMapUnderway DataData graphs

EquipmentUnitsComment
TimeDGPSUTC
LatitudeDGPSDM.mWGS84
LongitudeDGPSDM.mWGS84
HeadingGyrodeg 
SOGDGPSknotsSpeed over ground
COGDGPSdegCourse over ground
DepthEcho soundermeters200 kHz
Missing or incorrect values are displayed as -999
Navigation data collected by the RV Zeeleeuw from 2009-07-22 06:56:46 to 2009-07-22 15:28:27
                                                                                    Next 1000 lines
Time Latitude Longitude Heading SOG COG Depth
2009-07-22 06:56:56 51°13.662 2°55.96 126.3 -999 79 -999
2009-07-22 06:57:01 51°13.662 2°55.96 125.6 0.1 151 -999
2009-07-22 06:57:06 51°13.662 2°55.96 125.5 -999 103 -999
2009-07-22 06:57:11 51°13.662 2°55.96 125.3 -999 279 -999
2009-07-22 06:57:16 51°13.662 2°55.96 125.3 -999 249 -999
2009-07-22 06:57:21 51°13.662 2°55.96 125.4 -999 16 -999
2009-07-22 06:57:26 51°13.662 2°55.96 125.4 -999 148 -999
2009-07-22 06:57:31 51°13.662 2°55.96 125.5 -999 160 -999
2009-07-22 06:57:36 51°13.662 2°55.96 125.5 -999 116 -999
2009-07-22 06:57:41 51°13.662 2°55.96 125.6 -999 134 -999
2009-07-22 06:57:46 51°13.662 2°55.96 125.8 -999 40 -999
2009-07-22 06:57:51 51°13.662 2°55.96 125.8 -999 202 -999
2009-07-22 06:57:56 51°13.662 2°55.96 125.8 -999 26 -999
2009-07-22 06:58:01 51°13.662 2°55.96 125.9 -999 184 -999
2009-07-22 06:58:06 51°13.662 2°55.96 125.9 0.1 81 -999
2009-07-22 06:58:11 51°13.662 2°55.96 126 0.1 156 4.6
2009-07-22 06:58:16 51°13.662 2°55.96 126.3 0.1 137 -999
2009-07-22 06:58:21 51°13.661 2°55.96 126.6 0.1 127 -999
2009-07-22 06:58:26 51°13.661 2°55.959 127.1 -999 253 -999
2009-07-22 06:58:31 51°13.661 2°55.959 127.6 -999 50 4.6
2009-07-22 06:58:36 51°13.661 2°55.959 127.9 -999 139 -999
2009-07-22 06:58:41 51°13.661 2°55.96 127.9 -999 211 4.6
2009-07-22 06:58:46 51°13.661 2°55.96 127.8 -999 357 -999
2009-07-22 06:58:51 51°13.66 2°55.959 127.8 -999 117 -999
2009-07-22 06:58:56 51°13.659 2°55.959 127.8 -999 62 -999
2009-07-22 06:59:01 51°13.659 2°55.96 127.8 -999 4 -999
2009-07-22 06:59:06 51°13.659 2°55.96 127.8 -999 47 -999
2009-07-22 06:59:11 51°13.66 2°55.96 127.8 -999 200 4.8
2009-07-22 06:59:16 51°13.66 2°55.961 127.8 -999 162 4.6
2009-07-22 06:59:21 51°13.659 2°55.961 127.8 -999 77 -999
2009-07-22 06:59:26 51°13.659 2°55.961 127.8 -999 36 -999
2009-07-22 06:59:31 51°13.659 2°55.961 127.8 -999 9 -999
2009-07-22 06:59:36 51°13.659 2°55.961 127.8 -999 328 -999
2009-07-22 06:59:41 51°13.659 2°55.961 127.8 -999 230 -999
2009-07-22 06:59:46 51°13.659 2°55.961 127.8 -999 323 -999
2009-07-22 06:59:51 51°13.659 2°55.961 127.8 -999 296 -999
2009-07-22 06:59:56 51°13.659 2°55.961 127.8 -999 322 -999
2009-07-22 07:00:01 51°13.659 2°55.961 128 -999 254 -999
2009-07-22 07:00:06 51°13.659 2°55.961 128.2 -999 225 -999
2009-07-22 07:00:11 51°13.659 2°55.96 128.6 -999 218 -999
2009-07-22 07:00:16 51°13.66 2°55.96 128.7 -999 27 -999
2009-07-22 07:00:20 51°13.66 2°55.96 129 -999 42 -999
2009-07-22 07:00:27 51°13.66 2°55.96 129.1 -999 79 -999
2009-07-22 07:00:31 51°13.66 2°55.96 129.2 0.1 59 -999
2009-07-22 07:00:36 51°13.66 2°55.96 129.2 0.1 56 -999
2009-07-22 07:00:41 51°13.661 2°55.96 128.7 -999 50 -999
2009-07-22 07:00:46 51°13.661 2°55.96 128.1 -999 67 -999
2009-07-22 07:00:51 51°13.661 2°55.96 127.6 -999 74 -999
2009-07-22 07:00:56 51°13.661 2°55.96 127.1 -999 143 4.7
2009-07-22 07:01:01 51°13.661 2°55.96 126.9 -999 106 -999
2009-07-22 07:01:06 51°13.661 2°55.96 126.7 -999 28 -999
2009-07-22 07:01:11 51°13.661 2°55.96 126.4 -999 78 -999
2009-07-22 07:01:16 51°13.661 2°55.96 126.2 -999 100 -999
2009-07-22 07:01:21 51°13.66 2°55.961 125.9 -999 143 -999
2009-07-22 07:01:26 51°13.66 2°55.961 125.7 -999 109 -999
2009-07-22 07:01:31 51°13.66 2°55.961 125.5 -999 156 -999
2009-07-22 07:01:36 51°13.66 2°55.961 125.3 -999 182 4.7
2009-07-22 07:01:41 51°13.66 2°55.961 125.1 -999 103 -999
2009-07-22 07:01:46 51°13.66 2°55.962 124.9 -999 81 -999
2009-07-22 07:01:51 51°13.66 2°55.962 124.9 -999 175 -999
2009-07-22 07:01:56 51°13.66 2°55.961 124.6 -999 194 -999
2009-07-22 07:02:01 51°13.66 2°55.961 124.4 -999 195 -999
2009-07-22 07:02:06 51°13.66 2°55.961 124.2 -999 238 -999
2009-07-22 07:02:11 51°13.661 2°55.962 124.2 -999 189 -999
2009-07-22 07:02:16 51°13.661 2°55.962 124 -999 186 4.6
2009-07-22 07:02:21 51°13.662 2°55.962 123.8 -999 182 -999
2009-07-22 07:02:26 51°13.662 2°55.962 123.6 -999 70 -999
2009-07-22 07:02:31 51°13.662 2°55.962 123.5 -999 266 -999
2009-07-22 07:02:36 51°13.662 2°55.962 123.3 -999 236 -999
2009-07-22 07:02:41 51°13.662 2°55.962 123.2 -999 182 -999
2009-07-22 07:02:46 51°13.662 2°55.962 123.1 -999 311 -999
2009-07-22 07:02:51 51°13.662 2°55.961 122.9 -999 30 -999
2009-07-22 07:02:56 51°13.662 2°55.961 122.8 -999 128 -999
2009-07-22 07:03:01 51°13.662 2°55.961 122.7 -999 201 -999
2009-07-22 07:03:06 51°13.662 2°55.961 122.6 -999 270 -999
2009-07-22 07:03:11 51°13.662 2°55.961 122.4 -999 138 -999
2009-07-22 07:03:16 51°13.661 2°55.96 122.3 -999 159 -999
2009-07-22 07:03:21 51°13.66 2°55.96 122.1 -999 172 -999
2009-07-22 07:03:26 51°13.66 2°55.96 122 -999 206 -999
2009-07-22 07:03:31 51°13.66 2°55.96 121.8 -999 200 -999
2009-07-22 07:03:36 51°13.66 2°55.96 121.5 -999 176 -999
2009-07-22 07:03:41 51°13.661 2°55.96 121.3 -999 154 -999
2009-07-22 07:03:46 51°13.661 2°55.96 121.2 -999 167 -999
2009-07-22 07:03:51 51°13.661 2°55.96 121 -999 122 -999
2009-07-22 07:03:56 51°13.661 2°55.96 120.7 -999 184 -999
2009-07-22 07:04:01 51°13.661 2°55.959 120.6 -999 189 -999
2009-07-22 07:04:06 51°13.662 2°55.96 120.5 -999 161 -999
2009-07-22 07:04:11 51°13.662 2°55.96 120.2 -999 139 -999
2009-07-22 07:04:16 51°13.662 2°55.96 120 -999 196 -999
2009-07-22 07:04:21 51°13.663 2°55.96 119.8 -999 223 -999
2009-07-22 07:04:26 51°13.663 2°55.961 119.5 -999 169 -999
2009-07-22 07:04:31 51°13.663 2°55.961 119.2 -999 168 -999
2009-07-22 07:04:36 51°13.663 2°55.961 118.9 -999 180 -999
2009-07-22 07:04:41 51°13.663 2°55.96 118.5 -999 185 -999
2009-07-22 07:04:46 51°13.663 2°55.96 118.1 -999 207 -999
2009-07-22 07:04:51 51°13.662 2°55.96 117.7 -999 190 -999
2009-07-22 07:04:56 51°13.662 2°55.96 117 0.1 208 -999
2009-07-22 07:05:01 51°13.662 2°55.96 116.6 -999 187 -999
2009-07-22 07:05:06 51°13.662 2°55.96 115.9 0.1 196 -999
2009-07-22 07:05:11 51°13.662 2°55.961 115.4 -999 194 -999
2009-07-22 07:05:16 51°13.662 2°55.961 114.8 0.1 194 -999
2009-07-22 07:05:21 51°13.661 2°55.961 114 0.1 194 -999
2009-07-22 07:05:26 51°13.661 2°55.961 113.3 0.1 195 4.5
2009-07-22 07:05:31 51°13.661 2°55.961 112.8 0.1 190 -999
2009-07-22 07:05:36 51°13.661 2°55.961 112.4 -999 270 -999
2009-07-22 07:05:41 51°13.661 2°55.961 111.7 0.1 312 4.6
2009-07-22 07:05:46 51°13.661 2°55.96 111.1 0.1 277 4.5
2009-07-22 07:05:51 51°13.661 2°55.959 111 0.3 294 4.5
2009-07-22 07:05:56 51°13.661 2°55.958 111 0.7 291 4.5
2009-07-22 07:06:01 51°13.662 2°55.956 111 0.9 292 -999
2009-07-22 07:06:06 51°13.662 2°55.954 111 1.1 292 4.6
2009-07-22 07:06:11 51°13.663 2°55.951 111 1.4 293 4.9
2009-07-22 07:06:16 51°13.664 2°55.947 111 1.7 291 4.7
2009-07-22 07:06:21 51°13.665 2°55.943 111.2 2.1 294 -999
2009-07-22 07:06:26 51°13.667 2°55.938 111.7 2.4 293 -999
2009-07-22 07:06:31 51°13.668 2°55.932 111.9 2.7 295 -999
2009-07-22 07:06:36 51°13.67 2°55.926 112 3 294 -999
2009-07-22 07:06:41 51°13.672 2°55.92 112.1 3.2 295 -999
2009-07-22 07:06:46 51°13.674 2°55.913 112.1 3.3 295 -999
2009-07-22 07:06:51 51°13.676 2°55.906 111.9 3.5 295 -999
2009-07-22 07:06:56 51°13.678 2°55.899 111.6 3.6 295 -999
2009-07-22 07:07:01 51°13.68 2°55.891 111.2 3.7 295 -999
2009-07-22 07:07:06 51°13.682 2°55.884 110.9 3.8 294 -999
2009-07-22 07:07:11 51°13.684 2°55.876 110.1 3.8 293 -999
2009-07-22 07:07:16 51°13.686 2°55.868 107.8 3.7 290 -999
2009-07-22 07:07:21 51°13.688 2°55.861 105.4 3.6 288 -999
2009-07-22 07:07:26 51°13.689 2°55.853 102.2 3.5 284 -999
2009-07-22 07:07:31 51°13.69 2°55.845 98.9 3.6 280 -999
2009-07-22 07:07:36 51°13.69 2°55.837 96 3.8 278 -999
2009-07-22 07:07:41 51°13.691 2°55.828 93.9 3.9 277 -999
2009-07-22 07:07:46 51°13.691 2°55.82 92.6 3.9 274 -999
2009-07-22 07:07:51 51°13.692 2°55.812 91.2 3.7 273 -999
2009-07-22 07:07:56 51°13.692 2°55.804 89.3 3.6 271 -999
2009-07-22 07:08:01 51°13.692 2°55.796 87.9 3.4 270 -999
2009-07-22 07:08:06 51°13.692 2°55.789 86.3 3.2 269 -999
2009-07-22 07:08:11 51°13.691 2°55.782 84.9 3 268 -999
2009-07-22 07:08:16 51°13.691 2°55.776 83.2 2.9 268 -999
2009-07-22 07:08:21 51°13.691 2°55.77 82.2 2.8 267 -999
2009-07-22 07:08:26 51°13.691 2°55.764 81.2 2.7 266 -999
2009-07-22 07:08:31 51°13.691 2°55.759 80.3 2.5 267 11.2
2009-07-22 07:08:36 51°13.691 2°55.755 79.7 1.5 270 11.5
2009-07-22 07:08:40 51°13.691 2°55.754 78.6 1 277 11.6
2009-07-22 07:08:45 51°13.691 2°55.753 75.2 0.5 310 11.6
2009-07-22 07:08:50 51°13.692 2°55.753 69.9 0.4 3 11.7
2009-07-22 07:08:55 51°13.693 2°55.754 63.9 0.7 23 11.7
2009-07-22 07:09:00 51°13.694 2°55.755 57.8 1 35 11.7
2009-07-22 07:09:05 51°13.695 2°55.756 51.9 1 30 11.6
2009-07-22 07:09:09 51°13.696 2°55.757 46 0.9 28 11.7
2009-07-22 07:09:14 51°13.697 2°55.757 41.8 0.6 23 11.7
2009-07-22 07:09:19 51°13.697 2°55.757 39.3 0.2 349 11.8
2009-07-22 07:09:24 51°13.697 2°55.757 35.2 0.3 233 11.8
2009-07-22 07:09:29 51°13.696 2°55.756 31.3 0.6 221 11.8
2009-07-22 07:09:34 51°13.695 2°55.755 27.9 0.7 215 11.8
2009-07-22 07:09:39 51°13.695 2°55.754 25.2 0.6 211 11.7
2009-07-22 07:09:44 51°13.694 2°55.754 23.2 0.5 213 11.7
2009-07-22 07:09:48 51°13.694 2°55.753 21.1 0.4 226 11.6
2009-07-22 07:09:53 51°13.694 2°55.753 19.3 0.1 299 11.7
2009-07-22 07:09:58 51°13.695 2°55.753 16.2 0.5 348 11.7
2009-07-22 07:10:03 51°13.696 2°55.753 12.6 0.9 1 11.8
2009-07-22 07:10:08 51°13.698 2°55.753 6.4 1.3 355 11.9
2009-07-22 07:10:12 51°13.7 2°55.752 0.2 1.6 353 11.9
2009-07-22 07:10:17 51°13.702 2°55.752 353.7 1.9 349 11.8
2009-07-22 07:10:23 51°13.706 2°55.75 348.3 2.1 343 11.7
2009-07-22 07:10:28 51°13.709 2°55.748 341.6 2.5 340 11.8
2009-07-22 07:10:32 51°13.711 2°55.746 334.7 2.7 333 11.9
2009-07-22 07:10:37 51°13.715 2°55.743 331 2.9 333 11.6
2009-07-22 07:10:43 51°13.72 2°55.738 329.2 3.3 330 11.6
2009-07-22 07:10:48 51°13.725 2°55.734 328.1 3.8 329 11.4
2009-07-22 07:10:52 51°13.729 2°55.73 328 4.4 329 11.3
2009-07-22 07:10:57 51°13.735 2°55.724 328.3 4.9 329 11.1
2009-07-22 07:11:02 51°13.741 2°55.718 328.2 5.3 328 10.8
2009-07-22 07:11:08 51°13.749 2°55.71 328.6 5.7 329 10.6
2009-07-22 07:11:12 51°13.755 2°55.704 329.2 6 328 9.6
2009-07-22 07:11:17 51°13.763 2°55.697 329.4 6.4 328 9.4
2009-07-22 07:11:22 51°13.77 2°55.689 329.2 6.7 328 9.8
2009-07-22 07:11:28 51°13.78 2°55.679 329 7 328 10
2009-07-22 07:11:32 51°13.787 2°55.672 329.8 7.2 330 10.3
2009-07-22 07:11:38 51°13.798 2°55.662 331 7.5 330 10.3
2009-07-22 07:11:43 51°13.808 2°55.654 331.8 7.7 331 10.1
2009-07-22 07:11:48 51°13.817 2°55.646 332.4 7.9 332 10.2
2009-07-22 07:11:52 51°13.825 2°55.639 332.9 8 332 9.9
2009-07-22 07:11:57 51°13.835 2°55.631 333.4 8.2 333 9.9
2009-07-22 07:12:02 51°13.846 2°55.622 333.7 8.3 332 9.3
2009-07-22 07:12:08 51°13.858 2°55.613 334.5 8.4 334 9.9
2009-07-22 07:12:12 51°13.866 2°55.605 335 8.4 333 10
2009-07-22 07:12:18 51°13.879 2°55.596 335 8.5 334 10
2009-07-22 07:12:22 51°13.888 2°55.589 335.4 8.6 334 10
2009-07-22 07:12:28 51°13.901 2°55.579 335.6 8.7 334 10
2009-07-22 07:12:32 51°13.91 2°55.572 335.9 8.8 335 10.1
2009-07-22 07:12:38 51°13.923 2°55.562 336.4 8.9 335 10
2009-07-22 07:12:42 51°13.932 2°55.555 336.3 8.9 335 10
2009-07-22 07:12:47 51°13.943 2°55.547 336.6 9 336 10
2009-07-22 07:12:52 51°13.955 2°55.539 336.9 9 335 10
2009-07-22 07:12:57 51°13.966 2°55.53 336.6 9.1 335 10
2009-07-22 07:13:02 51°13.978 2°55.522 337.2 9.1 336 10
2009-07-22 07:13:08 51°13.992 2°55.512 337.4 9.1 335 10
2009-07-22 07:13:12 51°14.001 2°55.506 336.9 9.2 335 9.9
2009-07-22 07:13:18 51°14.015 2°55.495 336.7 9.2 336 9.8
2009-07-22 07:13:23 51°14.027 2°55.487 336.9 9.2 336 10.1
2009-07-22 07:13:28 51°14.038 2°55.479 337.3 9.2 336 9.9
2009-07-22 07:13:32 51°14.048 2°55.472 337.5 9.2 335 9.9
2009-07-22 07:13:37 51°14.059 2°55.463 337 9.3 335 9.9
2009-07-22 07:13:42 51°14.071 2°55.455 336.9 9.3 335 10.1
2009-07-22 07:13:47 51°14.083 2°55.446 337 9.3 335 9.9
2009-07-22 07:13:52 51°14.095 2°55.437 337.2 9.4 335 10
2009-07-22 07:13:57 51°14.106 2°55.428 336 9.4 332 10
2009-07-22 07:14:02 51°14.118 2°55.419 335.4 9.4 334 9.9
2009-07-22 07:14:08 51°14.132 2°55.407 335.2 9.4 331 9.9
2009-07-22 07:14:12 51°14.141 2°55.399 334 9.4 331 9.9
2009-07-22 07:14:17 51°14.152 2°55.388 332.2 9.5 329 9.9
2009-07-22 07:14:22 51°14.163 2°55.377 330.6 9.5 329 9.8
2009-07-22 07:14:28 51°14.176 2°55.363 330.2 9.6 327 9.9
2009-07-22 07:14:32 51°14.185 2°55.354 329.2 9.6 326 9.9
2009-07-22 07:14:37 51°14.196 2°55.341 327.6 9.6 324 9.9
2009-07-22 07:14:42 51°14.207 2°55.329 325.8 9.6 323 9.9
2009-07-22 07:14:48 51°14.219 2°55.313 324.6 9.7 322 9.9
2009-07-22 07:14:52 51°14.228 2°55.302 323.3 9.7 320 9.9
2009-07-22 07:14:57 51°14.238 2°55.288 321.8 9.7 319 9.9
2009-07-22 07:15:02 51°14.248 2°55.273 320.2 9.8 317 9.9
2009-07-22 07:15:07 51°14.258 2°55.258 318.6 9.8 317 9.8
2009-07-22 07:15:12 51°14.267 2°55.243 318 9.9 316 9.5
2009-07-22 07:15:17 51°14.277 2°55.227 316.5 10 313 9.6
2009-07-22 07:15:22 51°14.287 2°55.211 314.9 10.1 313 9.8
2009-07-22 07:15:27 51°14.296 2°55.194 314.4 10.2 314 9.7
2009-07-22 07:15:32 51°14.306 2°55.177 314.4 10.2 311 9.8
2009-07-22 07:15:37 51°14.315 2°55.16 312.6 10.3 309 9.6
2009-07-22 07:15:42 51°14.323 2°55.141 309.1 10.4 305 9.7
2009-07-22 07:15:48 51°14.333 2°55.119 306.5 10.4 305 10
2009-07-22 07:15:52 51°14.34 2°55.103 306.1 10.5 304 10
2009-07-22 07:15:57 51°14.348 2°55.084 305.5 10.6 303 9.7
2009-07-22 07:16:01 51°14.354 2°55.068 304.2 10.7 302 9.4
2009-07-22 07:16:07 51°14.363 2°55.044 303.5 10.8 302 9.2
2009-07-22 07:16:12 51°14.371 2°55.023 303.6 10.7 302 9
2009-07-22 07:16:17 51°14.379 2°55.003 302.5 10.7 299 8.9
2009-07-22 07:16:22 51°14.386 2°54.982 301.1 10.8 300 8.7
2009-07-22 07:16:27 51°14.394 2°54.961 300.9 10.9 300 8.9
2009-07-22 07:16:32 51°14.401 2°54.94 301.5 10.9 300 9
2009-07-22 07:16:36 51°14.407 2°54.923 302 11.1 298 9.1
2009-07-22 07:16:42 51°14.416 2°54.897 300.6 11.1 297 9.1
2009-07-22 07:16:48 51°14.424 2°54.871 300 11.2 298 9.2
2009-07-22 07:16:52 51°14.43 2°54.854 300.2 11.2 298 9.2
2009-07-22 07:16:57 51°14.437 2°54.831 300.1 11.3 297 9.3
2009-07-22 07:17:02 51°14.444 2°54.809 300 11.3 296 9.3
2009-07-22 07:17:08 51°14.453 2°54.782 300.2 11.4 296 9.4
2009-07-22 07:17:12 51°14.458 2°54.764 300.5 11.5 296 9.4
2009-07-22 07:17:17 51°14.465 2°54.741 300.3 11.5 296 9.4
2009-07-22 07:17:22 51°14.472 2°54.718 299.9 11.5 295 9.3
2009-07-22 07:17:28 51°14.48 2°54.69 300.5 11.5 296 9.3
2009-07-22 07:17:32 51°14.486 2°54.672 300.5 11.6 295 9.3
2009-07-22 07:17:37 51°14.493 2°54.649 299.7 11.6 295 9.3
2009-07-22 07:17:41 51°14.498 2°54.63 299.9 11.6 296 9.4
2009-07-22 07:17:47 51°14.507 2°54.603 301.3 11.6 298 9.3
2009-07-22 07:17:52 51°14.514 2°54.58 302.3 11.6 297 9.4
2009-07-22 07:17:57 51°14.522 2°54.558 302.5 11.6 298 9.4
2009-07-22 07:18:02 51°14.53 2°54.535 302.4 11.6 299 9.5
2009-07-22 07:18:07 51°14.538 2°54.513 303.3 11.6 300 9.5
2009-07-22 07:18:12 51°14.546 2°54.491 304.7 11.5 301 9.5
2009-07-22 07:18:17 51°14.555 2°54.47 306.4 11.5 304 9.5
2009-07-22 07:18:21 51°14.562 2°54.453 308.5 11.5 305 9.5
2009-07-22 07:18:27 51°14.573 2°54.429 310.5 11.5 308 9.4
2009-07-22 07:18:32 51°14.583 2°54.41 313 11.4 311 9.5
2009-07-22 07:18:37 51°14.594 2°54.391 315.6 11.3 313 9.5
2009-07-22 07:18:42 51°14.605 2°54.374 318.1 11.2 317 9.5
2009-07-22 07:18:48 51°14.619 2°54.354 320.9 11.2 318 9.4
2009-07-22 07:18:52 51°14.629 2°54.342 323.5 11.2 321 9.5
2009-07-22 07:18:56 51°14.638 2°54.329 325.9 11.1 322 9.5
2009-07-22 07:19:02 51°14.653 2°54.311 326.9 11.1 323 9.4
2009-07-22 07:19:08 51°14.668 2°54.293 327.8 11.1 323 9.3
2009-07-22 07:19:12 51°14.678 2°54.282 328.4 11.1 325 9.4
2009-07-22 07:19:17 51°14.691 2°54.268 329.7 11.1 326 9.5
2009-07-22 07:19:22 51°14.704 2°54.255 331.1 11.1 328 9.2
2009-07-22 07:19:28 51°14.72 2°54.24 332.6 11.1 330 9.3
2009-07-22 07:19:32 51°14.73 2°54.23 334.2 11.1 330 9.4
2009-07-22 07:19:37 51°14.744 2°54.219 335.4 11 332 9.3
2009-07-22 07:19:42 51°14.757 2°54.207 335.9 11 330 9.2
2009-07-22 07:19:47 51°14.77 2°54.194 334.8 11.1 329 9
2009-07-22 07:19:52 51°14.783 2°54.181 333.6 11.1 328 8.9
2009-07-22 07:19:57 51°14.796 2°54.168 333.3 11.1 329 9.1
2009-07-22 07:20:02 51°14.809 2°54.156 333.8 11.2 329 8.9
2009-07-22 07:20:07 51°14.823 2°54.142 333.2 11.1 327 8.6
2009-07-22 07:20:12 51°14.835 2°54.129 332.7 11.1 328 8.4
2009-07-22 07:20:17 51°14.848 2°54.115 332.3 11.1 326 8.4
2009-07-22 07:20:22 51°14.861 2°54.102 331.8 11.1 327 8.4
2009-07-22 07:20:28 51°14.876 2°54.086 331.6 11.1 326 8.4
2009-07-22 07:20:32 51°14.886 2°54.075 331.4 11 327 8.4
2009-07-22 07:20:37 51°14.899 2°54.061 331.6 11 326 8.4
2009-07-22 07:20:42 51°14.912 2°54.048 331.9 11 327 8.3
2009-07-22 07:20:48 51°14.928 2°54.032 332.5 11.1 327 8.3
2009-07-22 07:20:52 51°14.938 2°54.022 332.6 11.1 327 8.3
2009-07-22 07:20:57 51°14.951 2°54.009 333.6 11 330 8.4
2009-07-22 07:21:01 51°14.961 2°53.999 334.3 11.1 328 8.6
2009-07-22 07:21:07 51°14.977 2°53.985 334.8 11.1 330 8.6
2009-07-22 07:21:12 51°14.99 2°53.971 334.7 11.1 328 8.6
2009-07-22 07:21:17 51°15.003 2°53.959 334 11.1 329 8.6
2009-07-22 07:21:22 51°15.016 2°53.946 333.9 11 328 8.7
2009-07-22 07:21:28 51°15.032 2°53.931 334.7 11.1 330 8.7
2009-07-22 07:21:32 51°15.043 2°53.921 335.1 11.1 330 8.7
2009-07-22 07:21:37 51°15.056 2°53.909 335.2 11.1 329 8.8
2009-07-22 07:21:42 51°15.069 2°53.896 334.4 11.1 329 8.7
2009-07-22 07:21:48 51°15.085 2°53.881 334.5 11 330 8.5
2009-07-22 07:21:52 51°15.096 2°53.871 334.7 11 330 8.7
2009-07-22 07:21:57 51°15.109 2°53.86 335.7 11 330 8.7
2009-07-22 07:22:02 51°15.122 2°53.847 335.4 11 329 8.7
2009-07-22 07:22:08 51°15.138 2°53.832 335 11 328 8.6
2009-07-22 07:22:12 51°15.148 2°53.822 334.5 11 329 8.6
2009-07-22 07:22:17 51°15.161 2°53.809 334 11 328 8.6
2009-07-22 07:22:22 51°15.174 2°53.796 334.7 10.9 331 8.6
2009-07-22 07:22:28 51°15.189 2°53.782 335.5 11 329 8.5
2009-07-22 07:22:32 51°15.2 2°53.772 335.3 11 329 8.7
2009-07-22 07:22:37 51°15.213 2°53.759 334.9 11 329 8.5
2009-07-22 07:22:42 51°15.226 2°53.747 335.4 11 330 8.7
2009-07-22 07:22:48 51°15.242 2°53.732 335.6 11 329 8.8
2009-07-22 07:22:52 51°15.252 2°53.722 335.1 11 329 8.8
2009-07-22 07:22:57 51°15.265 2°53.71 334.9 11 329 8.9
2009-07-22 07:23:02 51°15.278 2°53.697 335 11 330 9
2009-07-22 07:23:08 51°15.294 2°53.682 335.6 11 329 8.8
2009-07-22 07:23:12 51°15.305 2°53.672 335.4 11 330 8.9
2009-07-22 07:23:17 51°15.318 2°53.66 335.9 11 329 9
2009-07-22 07:23:22 51°15.331 2°53.647 335.9 11 329 9
2009-07-22 07:23:28 51°15.347 2°53.632 335.6 11 329 8.9
2009-07-22 07:23:32 51°15.357 2°53.622 334.9 11 328 9
2009-07-22 07:23:37 51°15.37 2°53.609 334.5 11 328 9.3
2009-07-22 07:23:41 51°15.38 2°53.599 334.7 11 328 9.3
2009-07-22 07:23:47 51°15.396 2°53.583 334.4 11 327 9.2
2009-07-22 07:23:52 51°15.409 2°53.57 334 11 327 9.3
2009-07-22 07:23:57 51°15.422 2°53.557 333.9 11 328 9.3
2009-07-22 07:24:02 51°15.435 2°53.544 334 11.1 327 9.5
2009-07-22 07:24:08 51°15.45 2°53.529 333.6 11 329 9.6
2009-07-22 07:24:12 51°15.461 2°53.518 334.2 11.1 328 9.5
2009-07-22 07:24:16 51°15.471 2°53.508 334.7 11.1 329 9.5
2009-07-22 07:24:22 51°15.487 2°53.493 335.6 11.1 329 9.5
2009-07-22 07:24:27 51°15.5 2°53.48 335.5 11.1 329 9.8
2009-07-22 07:24:32 51°15.513 2°53.468 335.8 11 330 9.6
2009-07-22 07:24:37 51°15.526 2°53.455 336.4 11 328 9.9
2009-07-22 07:24:42 51°15.539 2°53.442 335.6 11.1 328 9.9
2009-07-22 07:24:47 51°15.552 2°53.429 334.8 11 328 9.9
2009-07-22 07:24:52 51°15.565 2°53.416 334.9 11.1 327 10
2009-07-22 07:24:57 51°15.578 2°53.403 334.7 11.1 327 9.9
2009-07-22 07:25:02 51°15.591 2°53.39 334.7 11.1 329 10
2009-07-22 07:25:08 51°15.606 2°53.374 335.2 11.1 327 9.5
2009-07-22 07:25:12 51°15.617 2°53.364 334.7 11.1 328 9.6
2009-07-22 07:25:17 51°15.63 2°53.351 334.6 11.1 328 10.2
2009-07-22 07:25:22 51°15.643 2°53.338 335.1 11.1 330 10.2
2009-07-22 07:25:28 51°15.659 2°53.324 336.9 11.1 332 10.1
2009-07-22 07:25:32 51°15.67 2°53.315 338.4 11 332 9.8
2009-07-22 07:25:37 51°15.684 2°53.304 338.8 11.1 331 10.3
2009-07-22 07:25:42 51°15.697 2°53.292 339.6 11 334 10.3
2009-07-22 07:25:48 51°15.714 2°53.28 340.6 11 333 10.4
2009-07-22 07:25:52 51°15.725 2°53.271 340.4 11 333 10.4
2009-07-22 07:25:57 51°15.738 2°53.26 340.3 11 334 10.5
2009-07-22 07:26:02 51°15.752 2°53.249 340.5 11 334 10
2009-07-22 07:26:07 51°15.766 2°53.239 341.5 11 334 10.1
2009-07-22 07:26:12 51°15.78 2°53.229 341.9 10.9 336 10.5
2009-07-22 07:26:17 51°15.793 2°53.219 342.2 11 334 10.4
2009-07-22 07:26:22 51°15.807 2°53.208 342.2 11 335 10.5
2009-07-22 07:26:28 51°15.824 2°53.196 341.9 11 334 10.6
2009-07-22 07:26:32 51°15.835 2°53.187 342.4 11 336 10.5
2009-07-22 07:26:37 51°15.848 2°53.178 343.2 10.9 335 10.9
2009-07-22 07:26:42 51°15.862 2°53.167 342.3 11 334 10.6
2009-07-22 07:26:48 51°15.879 2°53.155 342.2 10.9 336 10.7
2009-07-22 07:26:52 51°15.889 2°53.146 342.7 11 333 10.5
2009-07-22 07:26:57 51°15.903 2°53.137 342.5 11 336 10.6
2009-07-22 07:27:01 51°15.914 2°53.128 342.3 11 334 10.8
2009-07-22 07:27:07 51°15.931 2°53.116 342 11 335 10.6
2009-07-22 07:27:12 51°15.944 2°53.106 342.3 11 335 10.7
2009-07-22 07:27:17 51°15.958 2°53.095 342.7 11 335 10.7
2009-07-22 07:27:22 51°15.972 2°53.085 342.6 11 335 11
2009-07-22 07:27:27 51°15.986 2°53.075 342.3 11 335 10.8
2009-07-22 07:27:32 51°15.999 2°53.065 342.2 10.9 335 10.8
2009-07-22 07:27:36 51°16.01 2°53.056 342.2 10.9 335 10.9
2009-07-22 07:27:42 51°16.027 2°53.044 342.5 10.9 335 11.1
2009-07-22 07:27:48 51°16.043 2°53.032 342.4 10.9 335 11.1
2009-07-22 07:27:52 51°16.054 2°53.024 342.1 11 335 11
2009-07-22 07:27:57 51°16.068 2°53.014 342.4 11 336 11
2009-07-22 07:28:02 51°16.082 2°53.003 342.2 11 334 11
2009-07-22 07:28:08 51°16.098 2°52.991 342.1 11 336 10.9
2009-07-22 07:28:12 51°16.109 2°52.983 342.1 11 335 11.1
2009-07-22 07:28:17 51°16.123 2°52.973 341.9 10.9 335 11.1
2009-07-22 07:28:22 51°16.137 2°52.963 342.7 10.9 335 11.2
2009-07-22 07:28:28 51°16.153 2°52.95 341.9 11 334 11
2009-07-22 07:28:32 51°16.164 2°52.942 341.6 10.9 335 11
2009-07-22 07:28:37 51°16.178 2°52.932 342 10.9 334 10.9
2009-07-22 07:28:42 51°16.191 2°52.921 341.8 10.9 334 11.1
2009-07-22 07:28:47 51°16.205 2°52.91 341.5 10.9 334 11
2009-07-22 07:28:52 51°16.218 2°52.9 341.9 10.9 334 11.1
2009-07-22 07:28:57 51°16.232 2°52.89 341.9 10.9 335 11.1
2009-07-22 07:29:02 51°16.246 2°52.879 342 10.9 335 11.2
2009-07-22 07:29:07 51°16.26 2°52.869 342.2 10.9 335 11.1
2009-07-22 07:29:12 51°16.273 2°52.859 342.1 10.9 336 11.1
2009-07-22 07:29:17 51°16.287 2°52.85 342.4 10.9 335 11.2
2009-07-22 07:29:22 51°16.301 2°52.839 341.9 10.9 335 11.2
2009-07-22 07:29:27 51°16.315 2°52.83 341.8 10.9 335 11.3
2009-07-22 07:29:32 51°16.328 2°52.819 341.5 10.9 335 11.3
2009-07-22 07:29:36 51°16.339 2°52.811 341 10.9 335 11.3
2009-07-22 07:29:42 51°16.356 2°52.799 340.5 10.9 335 11.2
2009-07-22 07:29:48 51°16.372 2°52.786 340.3 10.9 334 11.1
2009-07-22 07:29:52 51°16.383 2°52.778 340 10.9 336 11.3
2009-07-22 07:29:57 51°16.397 2°52.767 340.3 10.9 334 11.1
2009-07-22 07:30:02 51°16.411 2°52.759 341.6 10.9 338 11.1
2009-07-22 07:30:08 51°16.428 2°52.747 342.7 10.9 337 11
2009-07-22 07:30:12 51°16.439 2°52.74 343.2 10.9 339 10.9
2009-07-22 07:30:17 51°16.453 2°52.731 343.4 10.9 337 10.9
2009-07-22 07:30:22 51°16.467 2°52.723 343.6 10.9 340 10.9
2009-07-22 07:30:28 51°16.484 2°52.712 344.1 10.9 339 10.8
2009-07-22 07:30:32 51°16.495 2°52.705 344.2 10.9 339 11
2009-07-22 07:30:37 51°16.509 2°52.697 344.5 10.9 339 10.9
2009-07-22 07:30:41 51°16.52 2°52.69 344.2 10.9 339 10.9
2009-07-22 07:30:48 51°16.54 2°52.678 344.4 10.9 340 10.7
2009-07-22 07:30:52 51°16.551 2°52.672 345.1 10.8 340 10.8
2009-07-22 07:30:57 51°16.565 2°52.663 345 10.8 339 10.6
2009-07-22 07:31:02 51°16.579 2°52.655 344.8 10.8 339 10.6
2009-07-22 07:31:08 51°16.596 2°52.645 344.6 10.8 339 10.3
2009-07-22 07:31:12 51°16.607 2°52.638 344.5 10.8 340 10.3
2009-07-22 07:31:17 51°16.621 2°52.63 344.9 10.8 340 10.4
2009-07-22 07:31:22 51°16.635 2°52.622 345.1 10.7 340 10.3
2009-07-22 07:31:28 51°16.652 2°52.612 344.9 10.7 340 10.1
2009-07-22 07:31:32 51°16.663 2°52.605 344.9 10.7 339 9.9
2009-07-22 07:31:37 51°16.677 2°52.597 344.7 10.7 340 9.7
2009-07-22 07:31:42 51°16.691 2°52.588 344.6 10.7 339 9.6
2009-07-22 07:31:48 51°16.707 2°52.579 344.7 10.7 341 9.4
2009-07-22 07:31:52 51°16.719 2°52.572 345.3 10.6 340 9.2
2009-07-22 07:31:57 51°16.733 2°52.565 345.9 10.6 343 9
2009-07-22 07:32:02 51°16.746 2°52.557 346.8 10.6 339 8.9
2009-07-22 07:32:08 51°16.763 2°52.548 346.3 10.5 342 9.1
2009-07-22 07:32:12 51°16.774 2°52.542 346.4 10.6 340 9.2
2009-07-22 07:32:17 51°16.788 2°52.534 346.6 10.6 341 9.2
2009-07-22 07:32:22 51°16.802 2°52.527 346.5 10.6 341 9
2009-07-22 07:32:28 51°16.818 2°52.517 346.6 10.6 340 8.9
2009-07-22 07:32:32 51°16.83 2°52.512 346.6 10.5 342 9.1
2009-07-22 07:32:37 51°16.843 2°52.503 346.3 10.6 340 9.3
2009-07-22 07:32:42 51°16.857 2°52.496 346.3 10.6 341 9.2
2009-07-22 07:32:48 51°16.874 2°52.487 346.5 10.5 340 9.1
2009-07-22 07:32:52 51°16.885 2°52.481 346.6 10.5 341 9.1
2009-07-22 07:32:57 51°16.899 2°52.473 346.5 10.5 341 8.9
2009-07-22 07:33:01 51°16.91 2°52.467 346.4 10.5 340 8.9
2009-07-22 07:33:07 51°16.926 2°52.457 346.4 10.5 341 8.9
2009-07-22 07:33:12 51°16.94 2°52.449 346.3 10.5 339 8.7
2009-07-22 07:33:17 51°16.953 2°52.441 345.8 10.5 340 8.8
2009-07-22 07:33:22 51°16.967 2°52.432 345.4 10.5 338 8.7
2009-07-22 07:33:27 51°16.98 2°52.424 344.5 10.5 339 8.8
2009-07-22 07:33:32 51°16.994 2°52.415 344.5 10.5 338 8.8
2009-07-22 07:33:36 51°17.005 2°52.409 344.3 10.5 339 9
2009-07-22 07:33:42 51°17.021 2°52.398 344.7 10.5 338 8.9
2009-07-22 07:33:47 51°17.034 2°52.389 344 10.5 337 8.9
2009-07-22 07:33:52 51°17.048 2°52.381 344 10.5 339 9
2009-07-22 07:33:57 51°17.062 2°52.372 344.1 10.5 338 9.3
2009-07-22 07:34:02 51°17.075 2°52.364 344.5 10.5 341 9.3
2009-07-22 07:34:08 51°17.091 2°52.354 345.8 10.5 337 9.3
2009-07-22 07:34:12 51°17.103 2°52.347 345.5 10.5 341 9.2
2009-07-22 07:34:17 51°17.116 2°52.339 345.6 10.6 339 9.3
2009-07-22 07:34:22 51°17.13 2°52.331 345.6 10.5 341 9.4
2009-07-22 07:34:28 51°17.146 2°52.321 346.3 10.6 339 9.4
2009-07-22 07:34:32 51°17.157 2°52.315 346.2 10.5 339 9.3
2009-07-22 07:34:37 51°17.171 2°52.307 345.8 10.5 341 9.3
2009-07-22 07:34:41 51°17.182 2°52.301 346.5 10.5 340 9.4
2009-07-22 07:34:47 51°17.199 2°52.291 346.6 10.5 340 9.5
2009-07-22 07:34:52 51°17.212 2°52.283 346.3 10.6 340 9.6
2009-07-22 07:34:57 51°17.226 2°52.274 346 10.6 338 9.5
2009-07-22 07:35:02 51°17.24 2°52.267 345.8 10.6 341 9.5
2009-07-22 07:35:08 51°17.256 2°52.256 346.2 10.6 339 10.4
2009-07-22 07:35:12 51°17.267 2°52.25 345.6 10.6 340 9.9
2009-07-22 07:35:17 51°17.281 2°52.242 345.8 10.6 340 10.4
2009-07-22 07:35:21 51°17.292 2°52.235 346.1 10.6 340 10.4
2009-07-22 07:35:28 51°17.311 2°52.224 346.3 10.6 340 10.5
2009-07-22 07:35:32 51°17.322 2°52.218 346 10.6 340 10.7
2009-07-22 07:35:37 51°17.336 2°52.209 345.7 10.6 340 10.8
2009-07-22 07:35:42 51°17.35 2°52.201 346.1 10.6 339 10.5
2009-07-22 07:35:48 51°17.366 2°52.191 345.9 10.6 339 10.5
2009-07-22 07:35:52 51°17.378 2°52.184 345.5 10.5 340 10.4
2009-07-22 07:35:57 51°17.391 2°52.175 345.4 10.5 338 10.1
2009-07-22 07:36:02 51°17.405 2°52.167 345.7 10.5 339 10
2009-07-22 07:36:08 51°17.421 2°52.156 345.2 10.5 336 10.3
2009-07-22 07:36:12 51°17.431 2°52.147 342.2 10.5 333 10.4
2009-07-22 07:36:17 51°17.444 2°52.137 340.8 10.5 333 10.2
2009-07-22 07:36:22 51°17.457 2°52.126 340.1 10.6 331 10.5
2009-07-22 07:36:28 51°17.472 2°52.112 338.5 10.6 331 10.6
2009-07-22 07:36:32 51°17.483 2°52.103 337.6 10.6 330 10.3
2009-07-22 07:36:37 51°17.495 2°52.091 336.9 10.6 329 10.4
2009-07-22 07:36:42 51°17.508 2°52.079 336.5 10.7 330 10.8
2009-07-22 07:36:48 51°17.523 2°52.064 335.7 10.7 327 10.2
2009-07-22 07:36:52 51°17.533 2°52.055 335.5 10.6 328 10.5
2009-07-22 07:36:57 51°17.545 2°52.041 334.4 10.7 324 10.1
2009-07-22 07:37:02 51°17.557 2°52.028 333.2 10.7 326 10.1
2009-07-22 07:37:08 51°17.572 2°52.01 332.2 10.7 323 9.9
2009-07-22 07:37:12 51°17.581 2°51.999 331.2 10.6 325 9.7
2009-07-22 07:37:17 51°17.593 2°51.985 331.2 10.7 323 9.7
2009-07-22 07:37:22 51°17.605 2°51.971 330.7 10.7 323 9.9
2009-07-22 07:37:28 51°17.619 2°51.954 330.3 10.7 323 9.4
2009-07-22 07:37:32 51°17.628 2°51.943 330.2 10.7 322 9.6
2009-07-22 07:37:37 51°17.64 2°51.928 329.4 10.7 321 9.5
2009-07-22 07:37:42 51°17.651 2°51.913 328.9 10.7 322 9.3
2009-07-22 07:37:48 51°17.665 2°51.896 329.2 10.7 322 9.6
2009-07-22 07:37:52 51°17.674 2°51.884 329.1 10.8 320 9.5
2009-07-22 07:37:57 51°17.686 2°51.869 328.8 10.7 322 9.5
2009-07-22 07:38:02 51°17.697 2°51.854 328.9 10.8 321 9.4
2009-07-22 07:38:08 51°17.711 2°51.836 328.9 10.8 321 9.4
2009-07-22 07:38:12 51°17.721 2°51.824 328.6 10.8 320 9.2
2009-07-22 07:38:17 51°17.732 2°51.809 328.1 10.7 320 9.3
2009-07-22 07:38:22 51°17.744 2°51.794 327.9 10.8 320 9.4
2009-07-22 07:38:28 51°17.757 2°51.775 328 10.8 320 9.3
2009-07-22 07:38:32 51°17.766 2°51.763 327.7 10.8 321 9.4
2009-07-22 07:38:37 51°17.778 2°51.748 328.6 10.8 321 9.4
2009-07-22 07:38:41 51°17.788 2°51.736 329 10.8 321 9.4
2009-07-22 07:38:47 51°17.802 2°51.718 328.9 10.7 323 9.2
2009-07-22 07:38:52 51°17.814 2°51.703 329.4 10.7 322 9.4
2009-07-22 07:38:57 51°17.826 2°51.689 329.6 10.7 322 9.4
2009-07-22 07:39:02 51°17.837 2°51.674 329.7 10.8 321 9.4
2009-07-22 07:39:08 51°17.852 2°51.656 329.6 10.8 323 9.5
2009-07-22 07:39:12 51°17.861 2°51.644 329.6 10.8 321 9.5
2009-07-22 07:39:16 51°17.871 2°51.633 329.6 10.8 322 9.5
2009-07-22 07:39:22 51°17.885 2°51.614 329.3 10.8 321 9.4
2009-07-22 07:39:28 51°17.899 2°51.597 328.9 10.8 322 9.7
2009-07-22 07:39:32 51°17.908 2°51.584 328.9 10.9 320 9.6
2009-07-22 07:39:36 51°17.917 2°51.572 328.8 10.8 322 9.7
2009-07-22 07:39:42 51°17.931 2°51.554 328.8 10.9 320 9.9
2009-07-22 07:39:48 51°17.945 2°51.536 328.4 10.9 321 9.9
2009-07-22 07:39:52 51°17.955 2°51.524 328.3 10.9 320 9.8
2009-07-22 07:39:57 51°17.967 2°51.509 328.7 10.9 322 9.8
2009-07-22 07:40:02 51°17.978 2°51.494 329.4 10.9 321 9.8
2009-07-22 07:40:08 51°17.993 2°51.476 329.6 10.9 323 10.1
2009-07-22 07:40:12 51°18.002 2°51.464 329.9 10.9 322 10.2
2009-07-22 07:40:17 51°18.014 2°51.449 330.2 10.9 322 10.2
2009-07-22 07:40:22 51°18.026 2°51.434 329.9 11 321 10.3
2009-07-22 07:40:27 51°18.038 2°51.419 329.6 10.9 322 10.4
2009-07-22 07:40:32 51°18.05 2°51.404 329.8 10.9 322 10.4
2009-07-22 07:40:36 51°18.06 2°51.393 329.8 10.9 323 10.6
2009-07-22 07:40:42 51°18.074 2°51.375 330.6 10.9 323 10.6
2009-07-22 07:40:48 51°18.089 2°51.357 330.8 11 323 10.8
2009-07-22 07:40:52 51°18.098 2°51.346 330.6 10.9 323 10.9
2009-07-22 07:40:57 51°18.11 2°51.331 330.9 10.9 323 10.9
2009-07-22 07:41:02 51°18.122 2°51.317 331 10.9 323 11
2009-07-22 07:41:08 51°18.137 2°51.299 331.1 10.9 323 11.2
2009-07-22 07:41:12 51°18.147 2°51.287 331.1 10.9 322 11.1
2009-07-22 07:41:17 51°18.159 2°51.273 330.8 10.9 324 11.5
2009-07-22 07:41:22 51°18.171 2°51.258 331.1 10.9 322 11.5
2009-07-22 07:41:28 51°18.185 2°51.24 331 10.9 322 11.5
2009-07-22 07:41:32 51°18.194 2°51.228 330.2 11 321 11.5
2009-07-22 07:41:37 51°18.207 2°51.213 329.9 10.9 322 11.7
2009-07-22 07:41:42 51°18.218 2°51.197 329.6 11 321 11.8
2009-07-22 07:41:47 51°18.23 2°51.183 330.2 10.9 324 11.7
2009-07-22 07:41:52 51°18.242 2°51.168 330.8 11 320 11.9
2009-07-22 07:41:57 51°18.254 2°51.153 330.3 10.9 322 11.9
2009-07-22 07:42:02 51°18.266 2°51.138 330.2 10.9 321 12.1
2009-07-22 07:42:08 51°18.28 2°51.12 330.1 10.9 322 12.2
2009-07-22 07:42:12 51°18.29 2°51.108 330.4 11 322 12.2
2009-07-22 07:42:17 51°18.302 2°51.093 330.7 10.9 321 12.2
2009-07-22 07:42:22 51°18.314 2°51.078 330.3 10.9 322 12.2
2009-07-22 07:42:28 51°18.328 2°51.06 330 10.9 322 12.4
2009-07-22 07:42:32 51°18.338 2°51.048 330.4 10.9 322 12.6
2009-07-22 07:42:37 51°18.35 2°51.033 331.1 10.9 322 12.6
2009-07-22 07:42:41 51°18.359 2°51.021 330.3 11 321 12.5
2009-07-22 07:42:47 51°18.373 2°51.003 330 11 321 12.6
2009-07-22 07:42:52 51°18.385 2°50.988 329.8 10.9 322 12.7
2009-07-22 07:42:57 51°18.397 2°50.973 329.8 11 320 12.9
2009-07-22 07:43:02 51°18.409 2°50.958 329.6 10.9 322 12.9
2009-07-22 07:43:07 51°18.42 2°50.942 329.2 10.9 320 12.7
2009-07-22 07:43:12 51°18.432 2°50.926 328.6 11 319 12.9
2009-07-22 07:43:16 51°18.441 2°50.914 327.8 11 319 12.7
2009-07-22 07:43:22 51°18.455 2°50.895 327.4 11 319 12.8
2009-07-22 07:43:28 51°18.469 2°50.875 327.7 11 318 13.1
2009-07-22 07:43:32 51°18.478 2°50.863 327.2 11 319 13
2009-07-22 07:43:37 51°18.489 2°50.847 327.6 11 319 13.2
2009-07-22 07:43:42 51°18.501 2°50.831 327.3 10.9 318 13.3
2009-07-22 07:43:47 51°18.512 2°50.814 326.9 11 318 13.2
2009-07-22 07:43:52 51°18.524 2°50.799 327.3 11 319 13.3
2009-07-22 07:43:57 51°18.535 2°50.782 327.3 11 318 13.4
2009-07-22 07:44:02 51°18.546 2°50.766 326.7 10.9 319 13.3
2009-07-22 07:44:07 51°18.558 2°50.75 327.4 11 318 13.4
2009-07-22 07:44:12 51°18.569 2°50.734 327.6 10.9 320 13.4
2009-07-22 07:44:17 51°18.58 2°50.718 327.4 11 316 13.6
2009-07-22 07:44:21 51°18.589 2°50.704 326.3 10.9 320 13.3
2009-07-22 07:44:28 51°18.605 2°50.682 326.8 11 317 13.5
2009-07-22 07:44:32 51°18.614 2°50.669 326.8 11 319 13.6
2009-07-22 07:44:37 51°18.625 2°50.653 327.3 11 317 13.7
2009-07-22 07:44:42 51°18.637 2°50.637 327.2 11 318 13.6
2009-07-22 07:44:47 51°18.648 2°50.62 326.8 11 318 13.6
2009-07-22 07:44:52 51°18.659 2°50.604 327.3 11 319 13.7
2009-07-22 07:44:56 51°18.669 2°50.591 327.7 11 317 13.7
2009-07-22 07:45:02 51°18.682 2°50.572 327.4 11 319 13.6
2009-07-22 07:45:07 51°18.693 2°50.555 327.2 11 317 13.6
2009-07-22 07:45:12 51°18.705 2°50.539 327.4 10.9 319 13.8
2009-07-22 07:45:17 51°18.716 2°50.523 327.1 11 317 13.8
2009-07-22 07:45:22 51°18.727 2°50.506 326.8 11 317 13.6
2009-07-22 07:45:27 51°18.738 2°50.49 326.8 11 318 13.6
2009-07-22 07:45:32 51°18.75 2°50.473 327 11 317 13.6
2009-07-22 07:45:37 51°18.761 2°50.457 327.2 11 318 13.7
2009-07-22 07:45:42 51°18.772 2°50.441 327.4 11.1 318 13.5
2009-07-22 07:45:48 51°18.786 2°50.421 327.3 11 318 13.7
2009-07-22 07:45:52 51°18.795 2°50.408 327.2 11.1 318 13.6
2009-07-22 07:45:57 51°18.807 2°50.392 326.9 11.1 318 13.4
2009-07-22 07:46:01 51°18.816 2°50.379 327.2 11 318 13.4
2009-07-22 07:46:07 51°18.829 2°50.359 327.3 11 318 13.4
2009-07-22 07:46:12 51°18.841 2°50.343 327.4 11.1 317 13.3
2009-07-22 07:46:17 51°18.852 2°50.327 327.3 11 319 13.4
2009-07-22 07:46:22 51°18.863 2°50.31 327.1 11 317 13.2
2009-07-22 07:46:27 51°18.875 2°50.294 327.4 11 320 12.8
2009-07-22 07:46:32 51°18.886 2°50.277 327.5 11.1 316 12.9
2009-07-22 07:46:37 51°18.898 2°50.261 327.3 11 319 12.7
2009-07-22 07:46:42 51°18.909 2°50.244 327.1 11.1 318 12.6
2009-07-22 07:46:48 51°18.923 2°50.225 327.4 11 319 12.7
2009-07-22 07:46:52 51°18.932 2°50.212 327.3 11 318 12.6
2009-07-22 07:46:57 51°18.943 2°50.196 327.4 11 319 12.4
2009-07-22 07:47:02 51°18.955 2°50.18 327.2 11 318 12.1
2009-07-22 07:47:08 51°18.969 2°50.161 327.3 11 320 12.2
2009-07-22 07:47:12 51°18.978 2°50.148 327.7 11 319 12
2009-07-22 07:47:17 51°18.99 2°50.132 327.8 11 321 11.8
2009-07-22 07:47:22 51°19.002 2°50.116 328.2 11.1 319 11.9
2009-07-22 07:47:28 51°19.015 2°50.096 327.7 11.1 319 11.8
2009-07-22 07:47:32 51°19.025 2°50.084 327.4 11.1 319 11.5
2009-07-22 07:47:37 51°19.036 2°50.067 327.1 11.1 319 11.5
2009-07-22 07:47:41 51°19.046 2°50.055 327.4 11.1 320 11.2
2009-07-22 07:47:47 51°19.06 2°50.036 327.7 11.1 319 11.1
2009-07-22 07:47:52 51°19.072 2°50.02 327.6 11.1 320 11.2
2009-07-22 07:47:57 51°19.083 2°50.004 327.8 11.1 319 11.2
2009-07-22 07:48:02 51°19.095 2°49.988 327.4 11.1 320 11
2009-07-22 07:48:08 51°19.109 2°49.969 327.6 11.1 319 10.7
2009-07-22 07:48:12 51°19.118 2°49.956 327.3 11.2 318 10.5
2009-07-22 07:48:16 51°19.127 2°49.943 326.5 11.1 319 10.4
2009-07-22 07:48:22 51°19.141 2°49.923 326.3 11.1 318 10.2
2009-07-22 07:48:28 51°19.155 2°49.905 326.8 11.1 320 10.2
2009-07-22 07:48:32 51°19.164 2°49.891 327.1 11.1 318 10.2
2009-07-22 07:48:37 51°19.176 2°49.875 327 11.1 321 10.6
2009-07-22 07:48:42 51°19.188 2°49.86 327.8 11.1 320 10.4
2009-07-22 07:48:48 51°19.202 2°49.841 327.7 11.1 320 10.5
2009-07-22 07:48:52 51°19.212 2°49.828 327.1 11.2 320 10.8
2009-07-22 07:48:57 51°19.224 2°49.812 327.4 11.2 320 10.7
2009-07-22 07:49:02 51°19.236 2°49.796 327.2 11.2 320 11.1
2009-07-22 07:49:08 51°19.25 2°49.776 327.4 11.2 320 11.5
2009-07-22 07:49:12 51°19.26 2°49.764 327.7 11.2 320 11.5
2009-07-22 07:49:17 51°19.271 2°49.747 326.8 11.2 318 11.8
2009-07-22 07:49:22 51°19.283 2°49.731 326.5 11.3 319 11.8
2009-07-22 07:49:27 51°19.295 2°49.714 326.3 11.2 319 11.8
2009-07-22 07:49:32 51°19.307 2°49.699 327.1 11.2 320 11.8
2009-07-22 07:49:37 51°19.319 2°49.682 327.4 11.3 319 11.7
2009-07-22 07:49:42 51°19.331 2°49.666 327.4 11.2 320 11.6
2009-07-22 07:49:47 51°19.343 2°49.65 327.6 11.2 320 11.7
2009-07-22 07:49:52 51°19.354 2°49.634 327.4 11.2 320 12
2009-07-22 07:49:56 51°19.364 2°49.621 327.7 11.2 320 12.3
2009-07-22 07:50:02 51°19.378 2°49.601 327.5 11.3 319 12.7
2009-07-22 07:50:08 51°19.392 2°49.582 327.6 11.3 319 12.9
2009-07-22 07:50:12 51°19.401 2°49.568 327.6 11.3 319 13.2
2009-07-22 07:50:17 51°19.413 2°49.552 327.5 11.3 320 13.4
2009-07-22 07:50:22 51°19.425 2°49.536 327.5 11.3 319 13.4
2009-07-22 07:50:28 51°19.439 2°49.516 327.3 11.3 319 13.5
2009-07-22 07:50:32 51°19.449 2°49.503 327.4 11.3 319 13.8
2009-07-22 07:50:37 51°19.461 2°49.487 327.5 11.2 319 13.9
2009-07-22 07:50:42 51°19.472 2°49.471 327.5 11.2 320 14
2009-07-22 07:50:48 51°19.487 2°49.452 327.5 11.2 319 14.1
2009-07-22 07:50:52 51°19.496 2°49.439 328 11.2 320 14.2
2009-07-22 07:50:57 51°19.508 2°49.422 327.6 11.3 318 14.3
2009-07-22 07:51:01 51°19.517 2°49.409 326.9 11.2 318 14.4
2009-07-22 07:51:08 51°19.533 2°49.386 326.7 11.2 318 14.4
2009-07-22 07:51:12 51°19.542 2°49.373 327.1 11.3 318 14.7
2009-07-22 07:51:16 51°19.552 2°49.359 327 11.2 318 14.5
2009-07-22 07:51:23 51°19.568 2°49.336 326.7 11.2 318 14.5
2009-07-22 07:51:27 51°19.577 2°49.323 326.8 11.2 318 14.7
2009-07-22 07:51:32 51°19.589 2°49.306 326.9 11.2 318 14.9
2009-07-22 07:51:36 51°19.598 2°49.293 327 11.3 318 15.1
2009-07-22 07:51:41 51°19.61 2°49.276 326.9 11.2 318 15.3
2009-07-22 07:51:47 51°19.624 2°49.256 326.8 11.2 318 15.5
2009-07-22 07:51:52 51°19.635 2°49.239 327.1 11.3 318 15.9
2009-07-22 07:51:56 51°19.644 2°49.226 326.6 11.2 316 16
2009-07-22 07:52:03 51°19.66 2°49.202 325.9 11.3 317 16.3
2009-07-22 07:52:08 51°19.672 2°49.185 326.5 11.2 317 16.3
2009-07-22 07:52:12 51°19.681 2°49.173 326.8 11.3 318 16.7
2009-07-22 07:52:17 51°19.692 2°49.155 326.9 11.2 318 16.7
2009-07-22 07:52:23 51°19.706 2°49.136 327.2 11.2 318 16.8
2009-07-22 07:52:28 51°19.718 2°49.119 327.9 11.1 319 17.2
2009-07-22 07:52:32 51°19.727 2°49.105 326.9 11.2 316 17.4
2009-07-22 07:52:37 51°19.738 2°49.089 326.8 11.2 318 17.4
2009-07-22 07:52:43 51°19.752 2°49.068 326.9 11.3 316 17.6
2009-07-22 07:52:48 51°19.763 2°49.051 326.6 11.2 317 17.8
2009-07-22 07:52:52 51°19.772 2°49.038 326.7 11.2 317 18
2009-07-22 07:52:57 51°19.784 2°49.02 326.9 11.3 317 18.2
2009-07-22 07:53:03 51°19.797 2°49 327.3 11.2 317 18.3
2009-07-22 07:53:08 51°19.809 2°48.983 327.2 11.3 316 18.4
2009-07-22 07:53:12 51°19.818 2°48.969 327 11.3 318 18.6
2009-07-22 07:53:17 51°19.829 2°48.952 326.9 11.3 316 18.8
2009-07-22 07:53:21 51°19.839 2°48.938 326.9 11.3 317 19
2009-07-22 07:53:28 51°19.855 2°48.914 326.9 11.3 317 19.2
2009-07-22 07:53:32 51°19.864 2°48.9 326.9 11.3 316 19.3
2009-07-22 07:53:37 51°19.875 2°48.884 326.9 11.3 318 19.6
2009-07-22 07:53:41 51°19.884 2°48.87 327.2 11.3 317 19.7
2009-07-22 07:53:47 51°19.898 2°48.849 327.1 11.3 317 20
2009-07-22 07:53:52 51°19.91 2°48.833 327.4 11.3 318 20.1
2009-07-22 07:53:57 51°19.921 2°48.816 326.7 11.3 317 20.4
2009-07-22 07:54:01 51°19.93 2°48.802 326.9 11.3 318 20.7
2009-07-22 07:54:07 51°19.944 2°48.782 327.7 11.3 317 20.9
2009-07-22 07:54:12 51°19.956 2°48.764 327 11.3 317 20.8
2009-07-22 07:54:17 51°19.967 2°48.747 326.9 11.3 316 21
2009-07-22 07:54:23 51°19.981 2°48.727 327.2 11.3 318 21.1
2009-07-22 07:54:28 51°19.992 2°48.71 327.5 11.3 316 21.1
2009-07-22 07:54:32 51°20.002 2°48.696 327.4 11.3 318 21.3
2009-07-22 07:54:37 51°20.013 2°48.679 327.7 11.3 316 21.1
2009-07-22 07:54:43 51°20.027 2°48.659 327.6 11.3 317 21.4
2009-07-22 07:54:48 51°20.038 2°48.641 326.7 11.4 316 21.4
2009-07-22 07:54:52 51°20.047 2°48.628 326.6 11.3 317 21.6
2009-07-22 07:54:57 51°20.059 2°48.61 327 11.4 316 21.5
2009-07-22 07:55:03 51°20.073 2°48.59 327.4 11.3 318 21.2
2009-07-22 07:55:08 51°20.084 2°48.573 327.4 11.3 317 21.4
2009-07-22 07:55:12 51°20.093 2°48.559 327.4 11.3 317 21.6
2009-07-22 07:55:17 51°20.105 2°48.542 327.3 11.3 316 21.6
2009-07-22 07:55:21 51°20.114 2°48.528 326.7 11.3 317 21.7
2009-07-22 07:55:28 51°20.13 2°48.504 327.1 11.3 317 21.7
2009-07-22 07:55:32 51°20.139 2°48.49 327.2 11.3 317 21.6
2009-07-22 07:55:37 51°20.15 2°48.473 327.4 11.4 316 21.6
2009-07-22 07:55:41 51°20.159 2°48.459 327.3 11.3 317 21.7
2009-07-22 07:55:48 51°20.175 2°48.435 326.9 11.4 316 21.7
2009-07-22 07:55:52 51°20.184 2°48.421 326.9 11.3 318 21.8
2009-07-22 07:55:57 51°20.196 2°48.404 327.3 11.4 316 21.8
2009-07-22 07:56:01 51°20.205 2°48.39 327.5 11.3 317 21.6
2009-07-22 07:56:07 51°20.219 2°48.369 327.6 11.4 317 21.7
2009-07-22 07:56:12 51°20.23 2°48.352 327.4 11.4 317 21.7
2009-07-22 07:56:17 51°20.242 2°48.335 327.1 11.4 316 21.7
2009-07-22 07:56:23 51°20.256 2°48.314 327.6 11.4 317 21.8
2009-07-22 07:56:28 51°20.267 2°48.297 327.7 11.3 317 21.5
2009-07-22 07:56:32 51°20.276 2°48.284 327.5 11.4 317 21.6
2009-07-22 07:56:37 51°20.287 2°48.266 327.7 11.4 316 21.7
2009-07-22 07:56:43 51°20.301 2°48.246 327.5 11.4 317 21.6
2009-07-22 07:56:48 51°20.312 2°48.229 327.4 11.4 317 21.4
2009-07-22 07:56:52 51°20.321 2°48.215 327.4 11.3 317 21.4
2009-07-22 07:56:57 51°20.333 2°48.198 327.5 11.3 316 21.3
2009-07-22 07:57:03 51°20.346 2°48.177 327.6 11.4 317 21.3
2009-07-22 07:57:08 51°20.358 2°48.16 327.6 11.3 317 21.2
2009-07-22 07:57:12 51°20.367 2°48.146 327.2 11.3 317 21.1
2009-07-22 07:57:17 51°20.379 2°48.129 328.3 11.3 318 21.1
2009-07-22 07:57:23 51°20.392 2°48.109 327.4 11.3 316 21
2009-07-22 07:57:28 51°20.404 2°48.092 327.1 11.3 317 21
2009-07-22 07:57:32 51°20.413 2°48.078 327.4 11.3 317 20.7
2009-07-22 07:57:37 51°20.424 2°48.061 327.3 11.3 317 20.7
2009-07-22 07:57:43 51°20.438 2°48.041 327.3 11.3 317 20.6
2009-07-22 07:57:48 51°20.449 2°48.023 327.7 11.3 317 20.6
2009-07-22 07:57:52 51°20.458 2°48.01 327.7 11.4 317 20.5
2009-07-22 07:57:57 51°20.47 2°47.992 327.4 11.4 316 20.2
2009-07-22 07:58:01 51°20.479 2°47.979 327.3 11.4 316 20.2
2009-07-22 07:58:08 51°20.495 2°47.955 327.1 11.3 319 20.2
2009-07-22 07:58:12 51°20.504 2°47.942 327.9 11.3 317 20.1
2009-07-22 07:58:17 51°20.516 2°47.925 328.1 11.2 318 20
2009-07-22 07:58:22 51°20.527 2°47.908 326.8 11.2 317 19.8
2009-07-22 07:58:28 51°20.541 2°47.888 327.8 11.2 316 19.6
2009-07-22 07:58:32 51°20.55 2°47.874 326.8 11.2 318 19.5
2009-07-22 07:58:37 51°20.562 2°47.857 326.8 11.3 317 19.4
2009-07-22 07:58:42 51°20.573 2°47.84 327 11.2 317 19.3
2009-07-22 07:58:48 51°20.587 2°47.82 326.9 11.2 317 19.3
2009-07-22 07:58:52 51°20.596 2°47.806 327.6 11.3 317 18.9
2009-07-22 07:58:57 51°20.607 2°47.789 327.2 11.3 317 18.1
2009-07-22 07:59:02 51°20.618 2°47.772 327 11.3 316 17.2
2009-07-22 07:59:08 51°20.632 2°47.752 327.4 11.3 318 17.9
2009-07-22 07:59:12 51°20.641 2°47.738 327.4 11.3 317 17.9
2009-07-22 07:59:17 51°20.653 2°47.722 327.9 11.2 319 18.3
2009-07-22 07:59:22 51°20.665 2°47.705 328.3 11.2 318 18.3
2009-07-22 07:59:28 51°20.679 2°47.685 328 11.3 318 18.7
2009-07-22 07:59:32 51°20.688 2°47.672 328 11.3 319 18.6
2009-07-22 07:59:37 51°20.7 2°47.655 328.2 11.3 317 18.5
2009-07-22 07:59:42 51°20.711 2°47.639 327.7 11.2 319 16.4
2009-07-22 07:59:48 51°20.725 2°47.619 328.1 11.3 317 16.2
2009-07-22 07:59:52 51°20.735 2°47.605 327.8 11.3 318 16.8
2009-07-22 07:59:57 51°20.747 2°47.588 327.4 11.3 319 17.2
2009-07-22 08:00:02 51°20.758 2°47.571 327.8 11.3 318 17.8
2009-07-22 08:00:08 51°20.773 2°47.552 327.8 11.3 319 18
2009-07-22 08:00:12 51°20.782 2°47.538 328 11.4 317 18.3
2009-07-22 08:00:17 51°20.794 2°47.521 327.7 11.3 319 18.2
2009-07-22 08:00:22 51°20.805 2°47.504 327.4 11.4 317 17.7
2009-07-22 08:00:28 51°20.82 2°47.484 327.6 11.3 319 17.9
2009-07-22 08:00:32 51°20.829 2°47.47 327.1 11.4 316 17.9
2009-07-22 08:00:37 51°20.841 2°47.453 326.7 11.3 319 18
2009-07-22 08:00:42 51°20.852 2°47.436 327.5 11.5 317 18.5
2009-07-22 08:00:48 51°20.866 2°47.415 327.2 11.4 318 18.5
2009-07-22 08:00:52 51°20.875 2°47.401 326.8 11.5 317 18.4
2009-07-22 08:00:57 51°20.887 2°47.384 326.8 11.5 317 16.8
2009-07-22 08:01:02 51°20.898 2°47.366 326.7 11.6 316 16.7
2009-07-22 08:01:08 51°20.913 2°47.345 326.2 11.5 317 17.7
2009-07-22 08:01:12 51°20.922 2°47.331 326.6 11.6 317 18.1
2009-07-22 08:01:17 51°20.934 2°47.314 327 11.6 317 18.9
2009-07-22 08:01:22 51°20.946 2°47.297 327.3 11.5 319 19.1
2009-07-22 08:01:28 51°20.96 2°47.276 327.4 11.5 316 19.8
2009-07-22 08:01:32 51°20.969 2°47.262 327.6 11.5 319 19.9
2009-07-22 08:01:37 51°20.981 2°47.245 327.3 11.5 317 20.2
2009-07-22 08:01:42 51°20.993 2°47.228 327.4 11.5 319 20.9
2009-07-22 08:01:48 51°21.007 2°47.208 327.9 11.5 317 21.3
2009-07-22 08:01:52 51°21.017 2°47.195 327.4 11.4 319 21.5
2009-07-22 08:01:57 51°21.029 2°47.178 327.5 11.5 318 21.5
2009-07-22 08:02:02 51°21.04 2°47.16 327.4 11.5 318 21.7
2009-07-22 08:02:08 51°21.055 2°47.141 327.4 11.5 319 22.1
2009-07-22 08:02:12 51°21.064 2°47.126 327.1 11.4 319 22.4
2009-07-22 08:02:17 51°21.076 2°47.11 328.2 11.5 318 22.5
2009-07-22 08:02:22 51°21.088 2°47.092 327.3 11.5 318 22.3
2009-07-22 08:02:28 51°21.102 2°47.072 327.3 11.5 319 19.7
2009-07-22 08:02:32 51°21.111 2°47.058 326.7 11.6 315 20
2009-07-22 08:02:37 51°21.123 2°47.04 326.2 11.6 318 20.3
2009-07-22 08:02:42 51°21.135 2°47.022 326.3 11.6 316 20.1
2009-07-22 08:02:48 51°21.149 2°47.002 326.3 11.5 318 21.2
2009-07-22 08:02:52 51°21.159 2°46.988 327.1 11.5 318 21.4
2009-07-22 08:02:57 51°21.171 2°46.971 327.7 11.5 318 21.4
2009-07-22 08:03:02 51°21.182 2°46.954 327.5 11.6 318 21.8
2009-07-22 08:03:08 51°21.197 2°46.934 327.4 11.5 319 22
2009-07-22 08:03:12 51°21.206 2°46.921 328.2 11.5 319 22
2009-07-22 08:03:17 51°21.218 2°46.904 328 11.5 319 22.2
2009-07-22 08:03:22 51°21.23 2°46.887 327.9 11.6 319 22.6
2009-07-22 08:03:28 51°21.245 2°46.866 327.2 11.5 318 22.7
2009-07-22 08:03:32 51°21.254 2°46.853 327.5 11.5 318 22.8
2009-07-22 08:03:37 51°21.266 2°46.837 327.4 11.5 320 22.8
2009-07-22 08:03:42 51°21.278 2°46.819 327.4 11.6 317 23.3
2009-07-22 08:03:48 51°21.293 2°46.799 327 11.5 319 23
2009-07-22 08:03:52 51°21.302 2°46.785 326.9 11.6 318 23.5
2009-07-22 08:03:57 51°21.314 2°46.769 327 11.5 319 23.8
2009-07-22 08:04:02 51°21.326 2°46.753 328 11.5 320 24.1
2009-07-22 08:04:08 51°21.34 2°46.732 327.4 11.5 318 24.3
2009-07-22 08:04:12 51°21.35 2°46.719 327.1 11.5 320 24.5
2009-07-22 08:04:17 51°21.362 2°46.702 327.4 11.5 318 24.6
2009-07-22 08:04:22 51°21.374 2°46.685 327.3 11.5 320 24.3
2009-07-22 08:04:28 51°21.388 2°46.665 327.5 11.5 318 22.1
2009-07-22 08:04:32 51°21.398 2°46.652 327.2 11.4 318 21.5
2009-07-22 08:04:37 51°21.41 2°46.635 326.8 11.5 319 21.9
2009-07-22 08:04:42 51°21.421 2°46.618 327.3 11.4 318 22.1
2009-07-22 08:04:48 51°21.435 2°46.598 327.3 11.4 319 23.1
2009-07-22 08:04:52 51°21.445 2°46.584 327.3 11.5 318 23.7
2009-07-22 08:04:57 51°21.457 2°46.568 327.5 11.4 319 24.2
2009-07-22 08:05:02 51°21.469 2°46.551 327.4 11.5 318 24.6
2009-07-22 08:05:08 51°21.483 2°46.531 327.4 11.5 318 24.7
2009-07-22 08:05:12 51°21.493 2°46.518 326.8 11.4 318 24.7
2009-07-22 08:05:17 51°21.504 2°46.5 326.4 11.4 318 24.6
2009-07-22 08:05:22 51°21.516 2°46.484 326.6 11.4 319 24.5
2009-07-22 08:05:28 51°21.53 2°46.464 326.7 11.4 318 24.7
2009-07-22 08:05:32 51°21.54 2°46.45 327.3 11.3 320 24.8
2009-07-22 08:05:37 51°21.552 2°46.434 327.8 11.4 318 24.8
2009-07-22 08:05:42 51°21.564 2°46.417 327.7 11.3 320 24.7
2009-07-22 08:05:48 51°21.578 2°46.397 327.4 11.4 318 24.8
2009-07-22 08:05:52 51°21.587 2°46.384 327 11.4 319 24.8
2009-07-22 08:05:57 51°21.599 2°46.367 327.2 11.4 319 24.6
2009-07-22 08:06:02 51°21.611 2°46.351 327.3 11.4 319 24.7
2009-07-22 08:06:08 51°21.625 2°46.331 327.3 11.4 319 24.7
2009-07-22 08:06:12 51°21.635 2°46.318 327.3 11.3 320 24.6
2009-07-22 08:06:17 51°21.646 2°46.301 327.9 11.3 318 24.3
2009-07-22 08:06:22 51°21.659 2°46.285 327.3 11.4 319 24.4
2009-07-22 08:06:28 51°21.673 2°46.265 326.9 11.4 319 24.1
2009-07-22 08:06:32 51°21.682 2°46.251 327 11.4 319 24
2009-07-22 08:06:37 51°21.694 2°46.235 327.4 11.3 319 24
2009-07-22 08:06:42 51°21.705 2°46.219 327.2 11.1 319 23.7
2009-07-22 08:06:48 51°21.72 2°46.2 327.6 11.1 319 23.7
2009-07-22 08:06:52 51°21.729 2°46.187 327.7 11.2 319 23.6
2009-07-22 08:06:57 51°21.741 2°46.17 327.8 11.3 319 23.4
2009-07-22 08:07:02 51°21.753 2°46.154 327.8 11.3 319 23.2
2009-07-22 08:07:08 51°21.767 2°46.134 327.6 11.4 320 23.1
2009-07-22 08:07:12 51°21.777 2°46.121 328.2 11.4 319 22.9
2009-07-22 08:07:17 51°21.789 2°46.104 327.5 11.5 318 22.9
2009-07-22 08:07:22 51°21.801 2°46.088 327 11.5 320 22.7
2009-07-22 08:07:28 51°21.815 2°46.067 327.5 11.5 318 22.3
2009-07-22 08:07:32 51°21.825 2°46.054 327.4 11.4 320 22.2
2009-07-22 08:07:37 51°21.837 2°46.038 327.5 11.5 319 22
2009-07-22 08:07:42 51°21.849 2°46.021 327.8 11.5 319 21.9
2009-07-22 08:07:48 51°21.863 2°46.001 327.5 11.6 319 21.8
2009-07-22 08:07:52 51°21.873 2°45.987 327.4 11.5 319 21.6
2009-07-22 08:07:57 51°21.885 2°45.971 327.4 11.5 318 21.3
2009-07-22 08:08:02 51°21.897 2°45.954 326.6 11.4 318 21.4
2009-07-22 08:08:08 51°21.911 2°45.934 327.1 11.4 319 21.3
2009-07-22 08:08:12 51°21.92 2°45.92 327 11.5 317 21.3
2009-07-22 08:08:17 51°21.932 2°45.903 326.7 11.4 319 21.1
2009-07-22 08:08:22 51°21.944 2°45.887 327.1 11.4 319 21
2009-07-22 08:08:28 51°21.958 2°45.866 327.5 11.5 319 21.1
2009-07-22 08:08:32 51°21.968 2°45.853 327.6 11.5 318 21
2009-07-22 08:08:37 51°21.98 2°45.836 327.2 11.4 318 20.8
2009-07-22 08:08:42 51°21.992 2°45.819 326.9 11.5 318 21
2009-07-22 08:08:48 51°22.006 2°45.798 326.7 11.4 319 20.8
2009-07-22 08:08:52 51°22.015 2°45.785 327.4 11.4 317 20.8
2009-07-22 08:08:57 51°22.027 2°45.768 326.7 11.5 318 20.7
2009-07-22 08:09:03 51°22.041 2°45.747 327.1 11.5 318 20.8
2009-07-22 08:09:08 51°22.053 2°45.73 327.2 11.4 318 20.8
2009-07-22 08:09:12 51°22.063 2°45.717 327.4 11.4 319 20.7
2009-07-22 08:09:17 51°22.075 2°45.701 327.6 11.4 319 20.8
2009-07-22 08:09:22 51°22.086 2°45.684 327.4 11.4 319 20.9
2009-07-22 08:09:28 51°22.101 2°45.665 327.8 11.3 319 20.8
2009-07-22 08:09:32 51°22.11 2°45.651 327.6 11.3 319 20.8
2009-07-22 08:09:37 51°22.122 2°45.635 327.5 11.4 318 20.9
2009-07-22 08:09:42 51°22.134 2°45.618 326.9 11.3 318 20.9
2009-07-22 08:09:48 51°22.148 2°45.598 327 11.3 319 21.3
2009-07-22 08:09:52 51°22.157 2°45.584 327.3 11.4 318 21.4
2009-07-22 08:09:57 51°22.169 2°45.568 327.4 11.4 319 21.4
2009-07-22 08:10:02 51°22.181 2°45.551 327.6 11.4 318 21.4
2009-07-22 08:10:08 51°22.195 2°45.531 326.8 11.3 319 21.4
2009-07-22 08:10:12 51°22.205 2°45.518 327.4 11.3 320 21.8
2009-07-22 08:10:17 51°22.217 2°45.501 328.2 11.4 318 21.7
2009-07-22 08:10:22 51°22.228 2°45.485 327.2 11.3 320 21.7
2009-07-22 08:10:28 51°22.243 2°45.465 327.5 11.3 319 21.7
2009-07-22 08:10:32 51°22.252 2°45.452 327.2 11.3 319 21.8
2009-07-22 08:10:37 51°22.264 2°45.436 327.6 11.3 319 22.3
2009-07-22 08:10:42 51°22.275 2°45.418 326.8 11.4 317 22.3
2009-07-22 08:10:48 51°22.29 2°45.398 326.8 11.4 319 22.5
2009-07-22 08:10:52 51°22.299 2°45.384 326.5 11.4 316 22.5
2009-07-22 08:10:57 51°22.311 2°45.368 325.6 11.4 318 22.8
2009-07-22 08:11:02 51°22.322 2°45.35 325.8 11.4 317 22.9
2009-07-22 08:11:08 51°22.336 2°45.33 326.2 11.4 319 23.1
2009-07-22 08:11:12 51°22.346 2°45.316 326.7 11.5 317 23.2
2009-07-22 08:11:17 51°22.358 2°45.3 326.6 11.4 319 23.2
2009-07-22 08:11:22 51°22.369 2°45.283 327.2 11.4 318 23.4
2009-07-22 08:11:28 51°22.383 2°45.263 326.8 11.4 319 23.7
2009-07-22 08:11:32 51°22.393 2°45.249 327.6 11.4 318 23.6
2009-07-22 08:11:37 51°22.405 2°45.233 327.4 11.4 318 23.9
2009-07-22 08:11:42 51°22.417 2°45.216 327 11.3 319 24.5
2009-07-22 08:11:48 51°22.431 2°45.196 327 11.4 318 24.4
2009-07-22 08:11:52 51°22.44 2°45.183 327.4 11.3 319 23.7
2009-07-22 08:11:57 51°22.452 2°45.165 327.3 11.4 318 23.4
2009-07-22 08:12:02 51°22.464 2°45.148 326.8 11.4 317 23.8
2009-07-22 08:12:08 51°22.478 2°45.128 326.7 11.4 319 24.1
2009-07-22 08:12:12 51°22.487 2°45.115 327.3 11.4 319 24.8
2009-07-22 08:12:17 51°22.499 2°45.098 327.3 11.4 318 24.9
2009-07-22 08:12:22 51°22.511 2°45.081 326.9 11.4 318 25.5
2009-07-22 08:12:28 51°22.525 2°45.061 327.3 11.4 320 26.1
2009-07-22 08:12:32 51°22.534 2°45.048 327.8 11.4 317 26.3
2009-07-22 08:12:37 51°22.546 2°45.03 327 11.3 319 25.9
2009-07-22 08:12:42 51°22.558 2°45.014 328.2 11.4 318 25.8
2009-07-22 08:12:48 51°22.572 2°44.994 327.2 11.3 318 25.9
2009-07-22 08:12:52 51°22.582 2°44.981 327.2 11.4 318 26.1
2009-07-22 08:12:57 51°22.593 2°44.963 327.2 11.3 318 26.1
2009-07-22 08:13:02 51°22.605 2°44.947 327.1 11.3 320 26.1
2009-07-22 08:13:08 51°22.619 2°44.927 327.7 11.4 317 26.1
2009-07-22 08:13:12 51°22.628 2°44.913 327 11.4 319 26.4
2009-07-22 08:13:17 51°22.64 2°44.896 326.7 11.4 316 26.2
2009-07-22 08:13:22 51°22.651 2°44.879 327.1 11.4 318 26.1
2009-07-22 08:13:28 51°22.666 2°44.859 327.2 11.4 317 25.9
2009-07-22 08:13:32 51°22.675 2°44.845 326.2 11.4 317 26
2009-07-22 08:13:37 51°22.686 2°44.828 326.8 11.4 317 25.8
2009-07-22 08:13:42 51°22.698 2°44.81 326.7 11.4 316 26
2009-07-22 08:13:48 51°22.712 2°44.789 326.7 11.4 317 26.1
2009-07-22 08:13:52 51°22.721 2°44.775 327.1 11.4 318 25.9
2009-07-22 08:13:57 51°22.733 2°44.759 327.4 11.4 317 25.4
2009-07-22 08:14:02 51°22.744 2°44.742 327.2 11.4 318 25.2
2009-07-22 08:14:08 51°22.758 2°44.721 327.4 11.4 317 25.3
2009-07-22 08:14:12 51°22.767 2°44.707 327.2 11.4 317 25
2009-07-22 08:14:17 51°22.779 2°44.69 326.7 11.4 317 25.4
2009-07-22 08:14:22 51°22.791 2°44.672 327 11.5 317 25.5
2009-07-22 08:14:28 51°22.804 2°44.651 327 11.5 316 25.5
2009-07-22 08:14:32 51°22.814 2°44.637 326.5 11.5 316 25.7
2009-07-22 08:14:37 51°22.825 2°44.62 326.7 11.5 318 26.1
2009-07-22 08:14:42 51°22.837 2°44.603 327.4 11.5 318 25.9
2009-07-22 08:14:48 51°22.851 2°44.582 327.3 11.5 317 26.1
2009-07-22 08:14:52 51°22.86 2°44.568 327.2 11.5 317 25.8
2009-07-22 08:14:57 51°22.872 2°44.55 326.9 11.4 316 24.1
2009-07-22 08:15:02 51°22.883 2°44.533 326.6 11.5 317 23.8
2009-07-22 08:15:08 51°22.896 2°44.512 326.3 11.5 316 24.8
2009-07-22 08:15:12 51°22.905 2°44.498 326.6 11.4 317 25.2
2009-07-22 08:15:17 51°22.917 2°44.481 326.9 11.5 317 26.1
2009-07-22 08:15:22 51°22.929 2°44.463 326.7 11.4 317 26.1
2009-07-22 08:15:28 51°22.943 2°44.443 327.1 11.4 318 26.1
2009-07-22 08:15:32 51°22.952 2°44.43 327.5 11.5 317 26
2009-07-22 08:15:37 51°22.964 2°44.412 327.2 11.5 317 25.6
2009-07-22 08:15:43 51°22.977 2°44.391 326.9 11.6 315 25
2009-07-22 08:15:48 51°22.988 2°44.374 326.7 11.5 319 25.9
2009-07-22 08:15:52 51°22.998 2°44.36 327.9 11.5 317 26.2
2009-07-22 08:15:57 51°23.01 2°44.343 328.1 11.4 318 26.6
2009-07-22 08:16:03 51°23.024 2°44.323 327.9 11.4 318 26.6
2009-07-22 08:16:08 51°23.036 2°44.305 328 11.5 317 25.6
2009-07-22 08:16:12 51°23.045 2°44.292 328 11.5 317 23.9
2009-07-22 08:16:17 51°23.057 2°44.274 327.9 11.5 317 24.6
2009-07-22 08:16:22 51°23.069 2°44.257 327.8 11.5 317 25.7
2009-07-22 08:16:28 51°23.083 2°44.236 327 11.5 317 25.9
2009-07-22 08:16:32 51°23.092 2°44.222 327 11.5 317 26.5
2009-07-22 08:16:37 51°23.104 2°44.205 326.9 11.5 318 26.8
2009-07-22 08:16:42 51°23.115 2°44.187 327.4 11.5 316 26.5
2009-07-22 08:16:48 51°23.13 2°44.167 327.4 11.5 319 26.6
2009-07-22 08:16:52 51°23.139 2°44.153 327.6 11.5 317 26.9
2009-07-22 08:16:57 51°23.151 2°44.136 327.7 11.5 319 26.4
2009-07-22 08:17:02 51°23.163 2°44.119 327.8 11.5 318 26.7
2009-07-22 08:17:08 51°23.177 2°44.099 328.3 11.5 318 26.4
2009-07-22 08:17:12 51°23.187 2°44.084 327.9 11.5 316 26.2
2009-07-22 08:17:17 51°23.198 2°44.067 327.4 11.5 319 25.3
2009-07-22 08:17:22 51°23.21 2°44.049 327.6 11.6 315 25.1
2009-07-22 08:17:28 51°23.224 2°44.029 327.7 11.5 319 25.8
2009-07-22 08:17:32 51°23.234 2°44.015 327.6 11.6 316 26.2
2009-07-22 08:17:37 51°23.245 2°43.997 327.2 11.6 318 26.2
2009-07-22 08:17:42 51°23.257 2°43.979 326.7 11.7 316 25.9
2009-07-22 08:17:48 51°23.271 2°43.958 327.2 11.6 318 26.5
2009-07-22 08:17:52 51°23.281 2°43.944 327.3 11.6 317 26.4
2009-07-22 08:17:57 51°23.293 2°43.927 327.4 11.6 318 26.2
2009-07-22 08:18:02 51°23.305 2°43.91 328 11.5 318 26.3
2009-07-22 08:18:08 51°23.319 2°43.889 327 11.6 317 25.8
2009-07-22 08:18:12 51°23.328 2°43.875 327.2 11.6 316 25.5
2009-07-22 08:18:17 51°23.34 2°43.857 327.4 11.5 319 25
2009-07-22 08:18:22 51°23.352 2°43.84 327.9 11.6 318 25.1
2009-07-22 08:18:28 51°23.366 2°43.819 327.6 11.6 317 25.8
2009-07-22 08:18:32 51°23.375 2°43.806 327.5 11.5 318 26.1
2009-07-22 08:18:37 51°23.387 2°43.789 327.8 11.6 318 26.1
2009-07-22 08:18:42 51°23.399 2°43.772 328.1 11.5 318 25.7
2009-07-22 08:18:48 51°23.413 2°43.751 327.9 11.6 317 26
2009-07-22 08:18:52 51°23.422 2°43.737 327 11.5 318 26.4
2009-07-22 08:18:57 51°23.434 2°43.719 326.9 11.6 316 26.7
2009-07-22 08:19:02 51°23.446 2°43.701 326.4 11.6 317 26.7
2009-07-22 08:19:08 51°23.46 2°43.68 326.9 11.6 317 26.3
2009-07-22 08:19:12 51°23.47 2°43.667 327.3 11.5 319 26.4
2009-07-22 08:19:17 51°23.482 2°43.649 327.5 11.6 317 26.8
2009-07-22 08:19:22 51°23.493 2°43.632 327.1 11.6 318 26.5
2009-07-22 08:19:28 51°23.508 2°43.611 327.1 11.6 318 26.3
2009-07-22 08:19:32 51°23.517 2°43.597 327.3 11.6 318 26.6
2009-07-22 08:19:37 51°23.529 2°43.58 327.5 11.6 319 26.8
2009-07-22 08:19:42 51°23.541 2°43.564 328.2 11.6 318 26.6
2009-07-22 08:19:48 51°23.555 2°43.542 327.5 11.6 317 26.6
2009-07-22 08:19:52 51°23.565 2°43.529 327.3 11.6 319 26.5
2009-07-22 08:19:57 51°23.577 2°43.511 327.3 11.6 317 26.2
2009-07-22 08:20:02 51°23.589 2°43.494 327.1 11.5 318 26.7